Terminal Aerodrome Forecast
Issued by NWS Cleveland, OH

Home | Current Version | Previous Version | Text Only | Print | Product List | Glossary On
Versions: 1 2 3 4 5 6 7 8 9 10 11 12 13 14 15 16 17 18 19 20
000
FTUS41 KCLE 160100 AAA
TAFERI
TAF AMD
KERI 160121Z 1601/1624 35005KT 4SM -RA SCT007 OVC015
      TEMPO 1601/1605 2SM RA BR OVC007
     FM160600 35004KT 6SM BR OVC012
     FM160800 34004KT 5SM BR OVC007
     FM161200 35004KT P6SM OVC012
     FM161500 33006KT P6SM SCT030=

USA.gov is the U.S. government's official web portal to all federal, state and local government web resources and services.